• Join FlightAware (Why Join?)
  • Login
  • US Flag 
03:36AM EDT


 

Airport Tracker/Info


-or-


 

Live Flight TrackerFlight Track Log ✈ FLG4081 ✈ 11-Jun-2013 ✈ KRIC - KDTW

Flight Track Log - Related Links

Times and Time Zones

All times are in EDT time to prevent confusion due to time zone crossing. See the FLG4081 flight status page for this flight to view local times or setup timezone preferences in your user account.

Time Position Orientation Groundspeed Altitude Reporting Facility
EDT Latitude Longitude Course Direction KTS MPH feet Rate Location/Type
07:30PM 37.5292 -77.4353 249° West 186 214 4,400  Level Washington Center
07:31PM 37.4256 -77.6337 254° West  Level FlightAware Approximate
07:31PM 37.5028 -77.5186 248° West 225 259 6,300  Level Washington Center
07:32PM 37.3996 -77.7464 254° West  Level FlightAware Approximate
07:32PM 37.4742 -77.6119 249° West 260 299 8,800  Level Washington Center
07:33PM 37.3739 -77.8591 254° West  Level FlightAware Approximate
07:33PM 37.4456 -77.7028 248° West 272 313 11,200  Level Washington Center
07:34PM 37.3500 -77.9723 270° West  Level FlightAware Approximate
07:34PM 37.4144 -77.8039 249° West 297 342 12,700  Level Washington Center
07:35PM 37.3792 -77.9153 248° West 322 371 13,900 1,260 Climbing Washington Center
07:36PM 37.3475 -78.0319 251° West 347 399 15,300 1,560 Climbing Washington Center
07:37PM 37.3200 -78.1539 254° West 360 414 17,100 1,620 Climbing Washington Center
07:38PM 37.2964 -78.2756 256° West 360 414 18,600 1,320 Climbing Washington Center
07:39PM 37.3231 -78.3836 287° West 344 396 19,700 660 Climbing Washington Center
07:40PM 37.4086 -78.4808 318° Northwest 338 389 20,000 540 Climbing Washington Center
07:41PM 37.4833 -78.5781 314° West 355 409 20,800 1,140 Climbing Washington Center
07:42PM 37.5542 -78.6647 316° Northwest 361 415 22,300 1,320 Climbing Washington Center
07:43PM 37.6186 -78.7458 315° West 366 421 23,500 960 Climbing Washington Center
07:44PM 37.6894 -78.8356 315° West 366 421 24,300 660 Climbing Washington Center
07:45PM 37.7619 -78.9278 315° West 366 421 24,900 720 Climbing Washington Center
07:46PM 37.8444 -79.0314 315° West 371 427 25,800 720 Climbing Washington Center
07:47PM 37.9103 -79.1372 308° West 376 433 26,400 600 Climbing Washington Center
07:48PM 37.9353 -79.2725 283° West 385 443 27,000 540 Climbing Washington Center
07:49PM 37.9564 -79.4000 282° West 390 449 27,500 480 Climbing Washington Center
07:50PM 37.9811 -79.5408 283° West 402 463 28,000 480 Climbing Washington Center
07:51PM 38.0056 -79.6819 282° West 407 468 28,500 540 Climbing Washington Center
07:52PM 38.0333 -79.8389 283° West 414 476 29,100 540 Climbing Washington Center
07:53PM 38.0556 -79.9800 281° West 414 476 29,600 420 Climbing Washington Center
07:54PM 38.0794 -80.1239 282° West 414 476 30,000 180 Climbing Washington Center
07:55PM 38.1014 -80.2544 282° West 414 476 30,000  Level Washington Center
07:56PM 38.1250 -80.3958 282° West 414 476 30,000  Level Washington Center
07:59PM 38.1872 -80.7556 283° West 417 480 30,000  Level Indianapolis Center
08:00PM 38.2114 -80.9014 282° West 418 481 30,000  Level Indianapolis Center
08:01PM 38.2350 -81.0472 282° West 420 483 30,000  Level Indianapolis Center
08:02PM 38.2583 -81.1928 282° West 419 482 30,000  Level Indianapolis Center
08:03PM 38.3317 -81.3292 304° West 405 466 30,000  Level Indianapolis Center
08:04PM 38.4378 -81.3697 343° North 401 461 30,000  Level Indianapolis Center
08:05PM 38.5444 -81.4097 344° North 399 459 30,000  Level Indianapolis Center
08:06PM 38.6572 -81.4528 343° North 400 460 30,000  Level Indianapolis Center
08:07PM 38.7653 -81.4961 343° North 404 465 30,000  Level Indianapolis Center
08:08PM 38.8806 -81.5383 344° North 405 466 30,000  Level Indianapolis Center
08:09PM 38.9872 -81.5794 343° North 402 463 30,000  Level Indianapolis Center
08:10PM 39.0942 -81.6211 343° North 401 461 30,000  Level Indianapolis Center
08:11PM 39.2011 -81.6625 343° North 403 464 30,000  Level Indianapolis Center
08:12PM 39.3078 -81.7033 344° North 399 459 30,000  Level Indianapolis Center
08:13PM 39.4142 -81.7461 343° North 400 460 30,000  Level Indianapolis Center
08:14PM 39.5208 -81.7872 343° North 399 459 30,000  Level Indianapolis Center
08:15PM 39.6272 -81.8292 343° North 400 460 30,000  Level Indianapolis Center
08:16PM 39.7553 -81.8700 346° North 397 457 30,000  Level Indianapolis Center
08:17PM 39.8669 -81.8897 352° North 400 460 30,000  Level Indianapolis Center
08:18PM 39.9797 -81.9097 352° North 405 466 30,000  Level Indianapolis Center
08:19PM 40.0922 -81.9294 352° North 405 466 30,000  Level Indianapolis Center
08:20PM 40.2047 -81.9506 352° North 406 467 30,000  Level Indianapolis Center
08:21PM 40.3297 -81.9719 353° North 406 467 30,000  Level Indianapolis Center
08:23PM 40.4428 -81.9936 352° North 406 467 30,000  Level Indianapolis Center
08:24PM 40.5561 -82.0139 352° North 407 468 30,000  Level Indianapolis Center
08:25PM 40.6706 -82.0353 352° North 410 472 30,000  Level Indianapolis Center
08:25PM 40.7039 -82.0431 350° North 409 471 30,000  Level Cleveland Center
08:26PM 40.8058 -82.0617 352° North 409 471 30,000 -540 Level Cleveland Center
08:27PM 40.9161 -82.0806 353° North 409 471 29,000 -1,020 Descending Cleveland Center
08:28PM 41.0286 -82.0997 353° North 409 471 28,000 -1,020 Descending Cleveland Center
08:29PM 41.1367 -82.1242 350° North 403 464 27,000 -1,140 Descending Cleveland Center
08:30PM 41.2572 -82.1436 353° North 403 464 25,800 -7,500 Descending Cleveland Center
08:31PM 41.3569 -82.1711 348° North 379 436 12,000 -2,160 Descending Cleveland Center
08:32PM 41.4200 -82.2694 311° West 337 388 21,500 3,660 Climbing Cleveland Center
08:33PM 41.4811 -82.3708 309° West 337 388 19,400 -2,160 Descending Cleveland Center
08:34PM 41.5358 -82.4639 308° West 337 388 17,200 -2,280 Descending Cleveland Center
08:34PM 41.5542 -82.4922 311° West 316 364 16,500 -2,100 Descending Cleveland Center
08:35PM 41.5886 -82.5544 307° West 321 369 15,100 -1,920 Descending Cleveland Center
08:35PM 41.6069 -82.5797 314° West 303 349 14,600 -1,740 Descending Cleveland Center
08:36PM 41.6414 -82.6392 308° West 316 364 13,400 -1,680 Descending Cleveland Center
08:36PM 41.6597 -82.6647 314° West 300 345 12,900 -1,440 Descending Cleveland Center
08:37PM 41.6878 -82.7214 304° West 308 354 12,000 -900 Descending Cleveland Center
08:37PM 41.7081 -82.7528 311° West 312 359 12,100  Climbing Cleveland Center
08:38PM 41.7444 -82.8067 312° West 308 354 12,000  Descending Cleveland Center
08:38PM 41.7731 -82.8356 323° Northwest 313 360 12,100  Climbing Cleveland Center
08:39PM 41.8097 -82.8842 315° West 308 354 12,000  Descending Cleveland Center
08:39PM 41.8383 -82.9158 320° Northwest 308 354 12,100  Climbing Cleveland Center
08:40PM 41.8728 -82.9592 317° Northwest 308 354 12,000  Descending Cleveland Center
08:40PM 41.8972 -82.9878 319° Northwest 260 299 12,100  Climbing Cleveland Center
08:41PM 41.9217 -83.0167 319° Northwest 281 323 12,000  Descending Cleveland Center
08:41PM 41.9442 -83.0397 323° Northwest 209 241 12,100  Climbing Cleveland Center
08:42PM 41.9642 -83.0714 310° West 236 272 12,000  Descending Cleveland Center
08:42PM 41.9906 -83.1003 321° Northwest 212 244 12,100  Climbing Cleveland Center
08:43PM 42.0111 -83.1236 320° Northwest 222 255 12,000  Descending Cleveland Center
08:43PM 42.0353 -83.1553 316° Northwest 214 246 12,100 60 Climbing Cleveland Center
08:44PM 42.0822 -83.2075 320° Northwest 215 247 12,100 -540 Level Cleveland Center
08:45PM 42.1400 -83.2294 344° North 220 253 11,100 -1,200 Descending Cleveland Center
08:46PM 42.1944 -83.2233 North 245 282 9,800 -1,500 Descending Cleveland Center
08:47PM 42.2625 -83.1644 33° Northeast 251 289 8,100 -1,620 Descending Cleveland Center
08:48PM 42.3175 -83.1217 30° Northeast 234 269 6,400 -1,800 Descending Cleveland Center
08:49PM 42.3556 -83.1906 307° West 191 220 4,300 -1,560 Descending Cleveland Center
08:50PM 42.3272 -83.2486 237° Southwest 177 204 3,100 -1,200 Descending Cleveland Center